sensor_id;sensor_type;location;lat;lon;timestamp;temperature;humidity
78902;DHT22;68290;44.716;37.756;2023-02-28T09:54:04;25.96;32.15
78902;DHT22;68290;44.716;37.756;2023-02-28T09:56:33;25.99;31.94
78902;DHT22;68290;44.716;37.756;2023-02-28T09:57:40;26.01;32.14
78902;DHT22;68290;44.716;37.756;2023-02-28T09:58:50;26.03;31.64
78902;DHT22;68290;44.716;37.756;2023-02-28T09:59:59;26.01;31.68
78902;DHT22;68290;44.716;37.756;2023-02-28T10:05:30;25.78;31.96
78902;DHT22;68290;44.716;37.756;2023-02-28T10:06:40;25.78;32.25
78902;DHT22;68290;44.716;37.756;2023-02-28T10:09:19;25.83;31.99
78902;DHT22;68290;44.716;37.756;2023-02-28T10:10:27;25.81;32.11
78902;DHT22;68290;44.716;37.756;2023-02-28T10:11:32;25.82;32.36
78902;DHT22;68290;44.716;37.756;2023-02-28T10:12:36;25.78;32.32
78902;DHT22;68290;44.716;37.756;2023-02-28T10:13:58;25.81;33.06
78902;DHT22;68290;44.716;37.756;2023-02-28T10:15:03;25.92;32.07
78902;DHT22;68290;44.716;37.756;2023-02-28T10:16:10;25.93;31.65
78902;DHT22;68290;44.716;37.756;2023-02-28T10:17:16;25.94;32.43
78902;DHT22;68290;44.716;37.756;2023-02-28T10:18:24;26.18;31.75
78902;DHT22;68290;44.716;37.756;2023-02-28T10:19:38;26.25;31.11
78902;DHT22;68290;44.716;37.756;2023-02-28T10:20:43;26.24;32.85
78902;DHT22;68290;44.716;37.756;2023-02-28T10:21:49;26.30;31.95
78902;DHT22;68290;44.716;37.756;2023-02-28T10:24:35;26.41;31.46
78902;DHT22;68290;44.716;37.756;2023-02-28T10:25:55;26.40;31.05
78902;DHT22;68290;44.716;37.756;2023-02-28T10:27:19;26.40;30.95
78902;DHT22;68290;44.716;37.756;2023-02-28T10:28:20;26.37;30.50
78902;DHT22;68290;44.716;37.756;2023-02-28T10:29:21;26.35;30.71
78902;DHT22;68290;44.716;37.756;2023-02-28T10:30:24;26.37;31.25
78902;DHT22;68290;44.716;37.756;2023-02-28T10:31:26;26.37;30.63
78902;DHT22;68290;44.716;37.756;2023-02-28T10:32:31;26.31;30.72
78902;DHT22;68290;44.716;37.756;2023-02-28T10:33:34;26.31;30.56
78902;DHT22;68290;44.716;37.756;2023-02-28T10:34:36;26.23;30.58
78902;DHT22;68290;44.716;37.756;2023-02-28T10:35:38;26.17;30.73
78902;DHT22;68290;44.716;37.756;2023-02-28T10:36:40;26.20;30.82
78902;DHT22;68290;44.716;37.756;2023-02-28T10:37:53;26.23;30.97
78902;DHT22;68290;44.716;37.756;2023-02-28T10:38:55;26.25;30.40
78902;DHT22;68290;44.716;37.756;2023-02-28T10:39:57;26.27;30.38
78902;DHT22;68290;44.716;37.756;2023-02-28T10:41:11;26.23;30.67
78902;DHT22;68290;44.716;37.756;2023-02-28T10:42:28;26.23;30.58
78902;DHT22;68290;44.716;37.756;2023-02-28T10:43:30;26.23;30.54
78902;DHT22;68290;44.716;37.756;2023-02-28T10:44:31;26.27;30.18
78902;DHT22;68290;44.716;37.756;2023-02-28T10:45:34;26.17;30.53
78902;DHT22;68290;44.716;37.756;2023-02-28T10:46:39;26.07;30.57
78902;DHT22;68290;44.716;37.756;2023-02-28T10:47:59;25.96;30.83
78902;DHT22;68290;44.716;37.756;2023-02-28T10:49:03;25.90;31.14
78902;DHT22;68290;44.716;37.756;2023-02-28T17:06:40;19.89;43.13
78902;DHT22;68290;44.716;37.756;2023-02-28T17:07:42;20.13;42.81
78902;DHT22;68290;44.716;37.756;2023-02-28T17:08:44;20.39;42.39
78902;DHT22;68290;44.716;37.756;2023-02-28T17:09:45;20.61;41.59
78902;DHT22;68290;44.716;37.756;2023-02-28T17:10:46;20.79;40.40
78902;DHT22;68290;44.716;37.756;2023-02-28T17:11:48;20.98;40.37
78902;DHT22;68290;44.716;37.756;2023-02-28T17:12:50;21.15;39.91
78902;DHT22;68290;44.716;37.756;2023-02-28T17:13:52;21.31;39.51
78902;DHT22;68290;44.716;37.756;2023-02-28T17:14:54;21.45;39.03
78902;DHT22;68290;44.716;37.756;2023-02-28T17:15:56;21.60;38.60
78902;DHT22;68290;44.716;37.756;2023-02-28T17:16:57;21.73;38.64
78902;DHT22;68290;44.716;37.756;2023-02-28T17:17:58;21.87;38.56
78902;DHT22;68290;44.716;37.756;2023-02-28T17:19:03;22.00;38.17
78902;DHT22;68290;44.716;37.756;2023-02-28T17:20:05;22.11;37.92
78902;DHT22;68290;44.716;37.756;2023-02-28T17:21:42;22.25;37.69
78902;DHT22;68290;44.716;37.756;2023-02-28T17:22:44;22.32;37.68
78902;DHT22;68290;44.716;37.756;2023-02-28T17:23:45;22.40;37.57
78902;DHT22;68290;44.716;37.756;2023-02-28T17:24:46;22.46;37.53
78902;DHT22;68290;44.716;37.756;2023-02-28T17:25:48;22.53;37.21
78902;DHT22;68290;44.716;37.756;2023-02-28T17:26:54;22.57;37.33
78902;DHT22;68290;44.716;37.756;2023-02-28T17:27:55;22.59;37.10
78902;DHT22;68290;44.716;37.756;2023-02-28T17:28:57;22.61;37.14
78902;DHT22;68290;44.716;37.756;2023-02-28T17:29:58;22.65;36.99
78902;DHT22;68290;44.716;37.756;2023-02-28T17:31:00;22.68;37.07
78902;DHT22;68290;44.716;37.756;2023-02-28T17:32:02;22.71;36.87
78902;DHT22;68290;44.716;37.756;2023-02-28T17:33:03;22.75;37.00
78902;DHT22;68290;44.716;37.756;2023-02-28T17:34:05;22.80;37.19
78902;DHT22;68290;44.716;37.756;2023-02-28T17:35:10;22.84;37.08
78902;DHT22;68290;44.716;37.756;2023-02-28T17:36:21;22.90;37.17
78902;DHT22;68290;44.716;37.756;2023-02-28T17:37:23;22.92;37.14
78902;DHT22;68290;44.716;37.756;2023-02-28T17:38:24;22.94;37.21
78902;DHT22;68290;44.716;37.756;2023-02-28T17:39:25;22.97;37.24
78902;DHT22;68290;44.716;37.756;2023-02-28T17:40:27;22.99;37.17
78902;DHT22;68290;44.716;37.756;2023-02-28T17:41:28;23.02;37.33
78902;DHT22;68290;44.716;37.756;2023-02-28T17:42:31;23.06;37.25
78902;DHT22;68290;44.716;37.756;2023-02-28T17:43:32;23.11;37.15
78902;DHT22;68290;44.716;37.756;2023-02-28T17:44:34;23.09;37.22
78902;DHT22;68290;44.716;37.756;2023-02-28T17:45:35;23.13;37.24
78902;DHT22;68290;44.716;37.756;2023-02-28T17:46:37;23.12;37.22
78902;DHT22;68290;44.716;37.756;2023-02-28T17:47:39;23.18;36.81
78902;DHT22;68290;44.716;37.756;2023-02-28T17:48:41;23.16;37.26
78902;DHT22;68290;44.716;37.756;2023-02-28T17:49:43;23.15;37.36
78902;DHT22;68290;44.716;37.756;2023-02-28T17:50:44;23.16;38.17
78902;DHT22;68290;44.716;37.756;2023-02-28T17:51:46;22.61;38.61
78902;DHT22;68290;44.716;37.756;2023-02-28T17:52:48;22.00;39.62
78902;DHT22;68290;44.716;37.756;2023-02-28T17:53:51;21.45;40.59
78902;DHT22;68290;44.716;37.756;2023-02-28T17:54:52;21.04;41.36
78902;DHT22;68290;44.716;37.756;2023-02-28T17:55:54;20.73;42.13
78902;DHT22;68290;44.716;37.756;2023-02-28T17:56:56;20.46;42.75
78902;DHT22;68290;44.716;37.756;2023-02-28T17:58:01;20.21;43.28
78902;DHT22;68290;44.716;37.756;2023-02-28T17:59:03;20.04;43.75
78902;DHT22;68290;44.716;37.756;2023-02-28T18:00:05;19.90;44.20
78902;DHT22;68290;44.716;37.756;2023-02-28T18:01:12;19.85;44.49
78902;DHT22;68290;44.716;37.756;2023-02-28T18:02:14;19.78;44.90
78902;DHT22;68290;44.716;37.756;2023-02-28T18:03:16;19.72;45.10
78902;DHT22;68290;44.716;37.756;2023-02-28T18:04:17;19.65;45.11
78902;DHT22;68290;44.716;37.756;2023-02-28T18:05:18;19.61;45.28
78902;DHT22;68290;44.716;37.756;2023-02-28T18:06:46;19.54;45.49
78902;DHT22;68290;44.716;37.756;2023-02-28T18:07:48;19.48;45.64
78902;DHT22;68290;44.716;37.756;2023-02-28T18:08:51;19.47;45.75
78902;DHT22;68290;44.716;37.756;2023-02-28T18:09:52;19.41;45.89
78902;DHT22;68290;44.716;37.756;2023-02-28T18:10:54;19.43;45.95
78902;DHT22;68290;44.716;37.756;2023-02-28T18:11:59;19.38;46.07
78902;DHT22;68290;44.716;37.756;2023-02-28T18:13:00;19.39;46.12
78902;DHT22;68290;44.716;37.756;2023-02-28T18:14:04;19.35;46.26
78902;DHT22;68290;44.716;37.756;2023-02-28T18:15:06;19.34;46.33
78902;DHT22;68290;44.716;37.756;2023-02-28T18:16:08;19.34;46.38
78902;DHT22;68290;44.716;37.756;2023-02-28T18:17:11;19.32;46.48
78902;DHT22;68290;44.716;37.756;2023-02-28T18:18:13;19.32;46.55
78902;DHT22;68290;44.716;37.756;2023-02-28T18:19:16;19.31;46.68
78902;DHT22;68290;44.716;37.756;2023-02-28T18:20:18;19.31;46.69
78902;DHT22;68290;44.716;37.756;2023-02-28T18:21:19;19.31;46.74
78902;DHT22;68290;44.716;37.756;2023-02-28T18:22:20;19.28;46.78
78902;DHT22;68290;44.716;37.756;2023-02-28T18:23:22;19.31;46.80
78902;DHT22;68290;44.716;37.756;2023-02-28T18:24:23;19.32;46.77
78902;DHT22;68290;44.716;37.756;2023-02-28T18:25:25;19.31;46.83
78902;DHT22;68290;44.716;37.756;2023-02-28T18:26:26;19.31;46.89
78902;DHT22;68290;44.716;37.756;2023-02-28T18:27:28;19.28;46.89
78902;DHT22;68290;44.716;37.756;2023-02-28T18:28:29;19.28;46.94
78902;DHT22;68290;44.716;37.756;2023-02-28T18:29:36;19.28;46.91
78902;DHT22;68290;44.716;37.756;2023-02-28T18:30:38;19.30;47.05
78902;DHT22;68290;44.716;37.756;2023-02-28T18:31:40;19.28;47.05
78902;DHT22;68290;44.716;37.756;2023-02-28T18:32:42;19.27;47.08
78902;DHT22;68290;44.716;37.756;2023-02-28T18:33:44;19.30;47.09
78902;DHT22;68290;44.716;37.756;2023-02-28T18:34:48;19.27;47.08
78902;DHT22;68290;44.716;37.756;2023-02-28T18:35:54;19.28;47.10
78902;DHT22;68290;44.716;37.756;2023-02-28T18:36:57;19.28;47.12
78902;DHT22;68290;44.716;37.756;2023-02-28T18:39:27;19.24;47.19
78902;DHT22;68290;44.716;37.756;2023-02-28T18:40:28;19.27;47.22
78902;DHT22;68290;44.716;37.756;2023-02-28T18:41:29;19.30;47.26
78902;DHT22;68290;44.716;37.756;2023-02-28T18:42:31;19.27;47.24
78902;DHT22;68290;44.716;37.756;2023-02-28T18:43:34;19.27;47.29
78902;DHT22;68290;44.716;37.756;2023-02-28T18:44:36;19.28;47.37
78902;DHT22;68290;44.716;37.756;2023-02-28T18:45:38;19.28;47.35
78902;DHT22;68290;44.716;37.756;2023-02-28T18:46:39;19.31;47.39
78902;DHT22;68290;44.716;37.756;2023-02-28T18:47:41;19.32;47.38
78902;DHT22;68290;44.716;37.756;2023-02-28T18:48:42;19.37;47.47
78902;DHT22;68290;44.716;37.756;2023-02-28T18:49:43;19.38;47.48
78902;DHT22;68290;44.716;37.756;2023-02-28T18:50:45;19.37;47.50
78902;DHT22;68290;44.716;37.756;2023-02-28T18:51:47;19.41;47.49
78902;DHT22;68290;44.716;37.756;2023-02-28T18:52:48;19.39;47.49
78902;DHT22;68290;44.716;37.756;2023-02-28T18:53:51;19.41;47.42
78902;DHT22;68290;44.716;37.756;2023-02-28T18:54:53;19.45;47.49
78902;DHT22;68290;44.716;37.756;2023-02-28T18:55:59;19.45;47.50
78902;DHT22;68290;44.716;37.756;2023-02-28T18:57:00;19.48;47.61
78902;DHT22;68290;44.716;37.756;2023-02-28T18:58:02;19.47;47.51
78902;DHT22;68290;44.716;37.756;2023-02-28T18:59:15;19.47;47.49
78902;DHT22;68290;44.716;37.756;2023-02-28T19:00:21;19.48;47.27
78902;DHT22;68290;44.716;37.756;2023-02-28T19:01:27;19.43;47.30
78902;DHT22;68290;44.716;37.756;2023-02-28T19:02:38;19.39;47.16
78902;DHT22;68290;44.716;37.756;2023-02-28T19:03:40;19.38;47.26
78902;DHT22;68290;44.716;37.756;2023-02-28T19:04:42;19.37;47.26
78902;DHT22;68290;44.716;37.756;2023-02-28T19:05:43;19.35;47.25
78902;DHT22;68290;44.716;37.756;2023-02-28T19:06:44;19.34;47.30
78902;DHT22;68290;44.716;37.756;2023-02-28T19:07:46;19.32;47.32
78902;DHT22;68290;44.716;37.756;2023-02-28T19:08:52;19.31;47.27
78902;DHT22;68290;44.716;37.756;2023-02-28T19:09:54;19.32;47.36
78902;DHT22;68290;44.716;37.756;2023-02-28T19:10:55;19.28;47.42
78902;DHT22;68290;44.716;37.756;2023-02-28T19:11:57;19.30;47.48
78902;DHT22;68290;44.716;37.756;2023-02-28T19:12:58;19.30;47.52
78902;DHT22;68290;44.716;37.756;2023-02-28T19:14:00;19.30;47.57
78902;DHT22;68290;44.716;37.756;2023-02-28T19:15:04;19.28;47.59
78902;DHT22;68290;44.716;37.756;2023-02-28T19:16:10;19.30;47.60
78902;DHT22;68290;44.716;37.756;2023-02-28T19:17:12;19.30;47.63
78902;DHT22;68290;44.716;37.756;2023-02-28T19:18:15;19.30;47.67
78902;DHT22;68290;44.716;37.756;2023-02-28T19:19:17;19.30;47.68
78902;DHT22;68290;44.716;37.756;2023-02-28T19:20:18;19.27;47.74
78902;DHT22;68290;44.716;37.756;2023-02-28T19:21:22;19.28;47.70
78902;DHT22;68290;44.716;37.756;2023-02-28T19:22:24;19.27;47.70
78902;DHT22;68290;44.716;37.756;2023-02-28T19:23:26;19.27;47.69
78902;DHT22;68290;44.716;37.756;2023-02-28T19:24:28;19.28;47.72
78902;DHT22;68290;44.716;37.756;2023-02-28T19:25:29;19.30;47.72
78902;DHT22;68290;44.716;37.756;2023-02-28T19:26:31;19.30;47.69
78902;DHT22;68290;44.716;37.756;2023-02-28T19:27:32;19.30;47.69
78902;DHT22;68290;44.716;37.756;2023-02-28T19:28:34;19.28;47.72
78902;DHT22;68290;44.716;37.756;2023-02-28T19:29:35;19.27;47.77
78902;DHT22;68290;44.716;37.756;2023-02-28T19:30:37;19.28;47.74
78902;DHT22;68290;44.716;37.756;2023-02-28T19:31:38;19.26;47.81
78902;DHT22;68290;44.716;37.756;2023-02-28T19:32:39;19.28;47.82
78902;DHT22;68290;44.716;37.756;2023-02-28T19:33:41;19.26;47.81
78902;DHT22;68290;44.716;37.756;2023-02-28T19:34:42;19.28;47.82
78902;DHT22;68290;44.716;37.756;2023-02-28T19:35:44;19.30;47.94
78902;DHT22;68290;44.716;37.756;2023-02-28T19:36:45;19.31;47.93
78902;DHT22;68290;44.716;37.756;2023-02-28T19:37:46;19.32;47.92
78902;DHT22;68290;44.716;37.756;2023-02-28T19:38:48;19.35;47.93
78902;DHT22;68290;44.716;37.756;2023-02-28T19:39:50;19.37;47.94
78902;DHT22;68290;44.716;37.756;2023-02-28T19:41:07;19.39;47.97
78902;DHT22;68290;44.716;37.756;2023-02-28T19:42:14;19.39;47.97
78902;DHT22;68290;44.716;37.756;2023-02-28T19:43:15;19.41;47.88
78902;DHT22;68290;44.716;37.756;2023-02-28T19:44:17;19.39;47.78
78902;DHT22;68290;44.716;37.756;2023-02-28T19:45:18;19.41;47.87
78902;DHT22;68290;44.716;37.756;2023-02-28T19:46:19;19.35;47.98
78902;DHT22;68290;44.716;37.756;2023-02-28T19:47:21;19.37;47.80
78902;DHT22;68290;44.716;37.756;2023-02-28T19:48:24;19.34;47.67
78902;DHT22;68290;44.716;37.756;2023-02-28T19:49:28;19.30;47.80
78902;DHT22;68290;44.716;37.756;2023-02-28T19:50:29;19.31;47.83
78902;DHT22;68290;44.716;37.756;2023-02-28T19:51:31;19.31;47.75
78902;DHT22;68290;44.716;37.756;2023-02-28T19:52:34;19.28;47.66
78902;DHT22;68290;44.716;37.756;2023-02-28T19:53:37;19.26;47.66
78902;DHT22;68290;44.716;37.756;2023-02-28T19:54:38;19.24;47.65
78902;DHT22;68290;44.716;37.756;2023-02-28T19:55:39;19.23;47.65
78902;DHT22;68290;44.716;37.756;2023-02-28T19:56:41;19.20;47.69
78902;DHT22;68290;44.716;37.756;2023-02-28T19:57:42;19.19;47.75
78902;DHT22;68290;44.716;37.756;2023-02-28T19:58:44;19.19;47.69
78902;DHT22;68290;44.716;37.756;2023-02-28T19:59:45;19.19;47.74
78902;DHT22;68290;44.716;37.756;2023-02-28T20:00:47;19.16;47.72
78902;DHT22;68290;44.716;37.756;2023-02-28T20:01:48;19.14;47.72
78902;DHT22;68290;44.716;37.756;2023-02-28T20:02:50;19.16;47.83
78902;DHT22;68290;44.716;37.756;2023-02-28T20:03:52;19.11;47.83
78902;DHT22;68290;44.716;37.756;2023-02-28T20:04:54;19.11;47.83
78902;DHT22;68290;44.716;37.756;2023-02-28T20:06:03;19.11;47.81
78902;DHT22;68290;44.716;37.756;2023-02-28T20:07:04;19.11;47.81
78902;DHT22;68290;44.716;37.756;2023-02-28T20:08:06;19.11;47.97
78902;DHT22;68290;44.716;37.756;2023-02-28T20:09:08;19.09;47.85
78902;DHT22;68290;44.716;37.756;2023-02-28T20:10:10;19.10;47.80
78902;DHT22;68290;44.716;37.756;2023-02-28T20:11:13;19.10;47.86
78902;DHT22;68290;44.716;37.756;2023-02-28T20:12:15;19.10;47.89
78902;DHT22;68290;44.716;37.756;2023-02-28T20:13:17;19.11;48.11
78902;DHT22;68290;44.716;37.756;2023-02-28T20:14:19;19.13;48.11
78902;DHT22;68290;44.716;37.756;2023-02-28T20:15:20;19.17;48.15
78902;DHT22;68290;44.716;37.756;2023-02-28T20:16:22;19.19;48.12
78902;DHT22;68290;44.716;37.756;2023-02-28T20:17:24;19.23;48.06
78902;DHT22;68290;44.716;37.756;2023-02-28T20:18:25;19.27;48.16
78902;DHT22;68290;44.716;37.756;2023-02-28T20:19:26;19.32;48.15
78902;DHT22;68290;44.716;37.756;2023-02-28T20:20:28;19.34;48.09
78902;DHT22;68290;44.716;37.756;2023-02-28T20:21:29;19.38;48.11
78902;DHT22;68290;44.716;37.756;2023-02-28T20:22:31;19.43;48.10
78902;DHT22;68290;44.716;37.756;2023-02-28T20:23:32;19.45;48.08
78902;DHT22;68290;44.716;37.756;2023-02-28T20:24:33;19.44;48.06
78902;DHT22;68290;44.716;37.756;2023-02-28T20:25:38;19.47;48.06
78902;DHT22;68290;44.716;37.756;2023-02-28T20:26:39;19.44;48.04
78902;DHT22;68290;44.716;37.756;2023-02-28T20:27:41;19.43;47.99
78902;DHT22;68290;44.716;37.756;2023-02-28T20:28:42;19.44;48.01
78902;DHT22;68290;44.716;37.756;2023-02-28T20:29:43;19.45;48.00
78902;DHT22;68290;44.716;37.756;2023-02-28T20:30:45;19.45;48.04
78902;DHT22;68290;44.716;37.756;2023-02-28T20:31:48;19.45;48.05
78902;DHT22;68290;44.716;37.756;2023-02-28T20:32:50;19.47;48.10
78902;DHT22;68290;44.716;37.756;2023-02-28T20:33:51;19.45;48.12
78902;DHT22;68290;44.716;37.756;2023-02-28T20:34:53;19.44;48.17
78902;DHT22;68290;44.716;37.756;2023-02-28T20:36:01;19.47;48.13
78902;DHT22;68290;44.716;37.756;2023-02-28T20:37:05;19.47;48.21
78902;DHT22;68290;44.716;37.756;2023-02-28T20:38:06;19.45;48.17
78902;DHT22;68290;44.716;37.756;2023-02-28T20:39:08;19.47;48.18
78902;DHT22;68290;44.716;37.756;2023-02-28T20:40:10;19.48;48.17
78902;DHT22;68290;44.716;37.756;2023-02-28T20:41:12;19.47;48.21
78902;DHT22;68290;44.716;37.756;2023-02-28T20:42:17;19.50;48.22
78902;DHT22;68290;44.716;37.756;2023-02-28T20:43:18;19.47;48.23
78902;DHT22;68290;44.716;37.756;2023-02-28T20:44:20;19.48;48.22
78902;DHT22;68290;44.716;37.756;2023-02-28T20:45:21;19.48;48.24
78902;DHT22;68290;44.716;37.756;2023-02-28T20:46:25;19.48;48.29
78902;DHT22;68290;44.716;37.756;2023-02-28T20:47:26;19.50;48.26
78902;DHT22;68290;44.716;37.756;2023-02-28T20:48:29;19.48;48.24
78902;DHT22;68290;44.716;37.756;2023-02-28T20:49:30;19.48;48.26
78902;DHT22;68290;44.716;37.756;2023-02-28T20:50:32;19.50;48.28
78902;DHT22;68290;44.716;37.756;2023-02-28T20:51:33;19.48;48.32
78902;DHT22;68290;44.716;37.756;2023-02-28T20:52:37;19.51;48.28
78902;DHT22;68290;44.716;37.756;2023-02-28T20:53:38;19.50;48.34
78902;DHT22;68290;44.716;37.756;2023-02-28T20:54:39;19.48;48.33
78902;DHT22;68290;44.716;37.756;2023-02-28T20:55:41;19.50;48.39
78902;DHT22;68290;44.716;37.756;2023-02-28T20:56:42;19.48;48.39
78902;DHT22;68290;44.716;37.756;2023-02-28T20:57:43;19.48;48.38
78902;DHT22;68290;44.716;37.756;2023-02-28T20:58:46;19.48;48.39
78902;DHT22;68290;44.716;37.756;2023-02-28T20:59:48;19.51;48.40
78902;DHT22;68290;44.716;37.756;2023-02-28T21:00:50;19.52;48.40
78902;DHT22;68290;44.716;37.756;2023-02-28T21:01:52;19.50;48.39
78902;DHT22;68290;44.716;37.756;2023-02-28T21:02:56;19.48;48.38
78902;DHT22;68290;44.716;37.756;2023-02-28T21:04:01;19.51;48.41
78902;DHT22;68290;44.716;37.756;2023-02-28T21:05:02;19.50;48.43
78902;DHT22;68290;44.716;37.756;2023-02-28T21:06:05;19.50;48.47
78902;DHT22;68290;44.716;37.756;2023-02-28T21:07:06;19.48;48.44
78902;DHT22;68290;44.716;37.756;2023-02-28T21:08:08;19.50;48.47
78902;DHT22;68290;44.716;37.756;2023-02-28T21:09:11;19.51;48.45
78902;DHT22;68290;44.716;37.756;2023-02-28T21:10:14;19.51;48.45
78902;DHT22;68290;44.716;37.756;2023-02-28T21:11:18;19.52;48.48
78902;DHT22;68290;44.716;37.756;2023-02-28T21:12:20;19.52;48.50
78902;DHT22;68290;44.716;37.756;2023-02-28T21:13:21;19.54;48.46
78902;DHT22;68290;44.716;37.756;2023-02-28T21:14:23;19.50;48.51
78902;DHT22;68290;44.716;37.756;2023-02-28T21:15:25;19.47;48.52
78902;DHT22;68290;44.716;37.756;2023-02-28T21:16:27;19.51;48.58
78902;DHT22;68290;44.716;37.756;2023-02-28T21:17:29;19.50;48.55
78902;DHT22;68290;44.716;37.756;2023-02-28T21:18:33;19.51;48.58
78902;DHT22;68290;44.716;37.756;2023-02-28T21:19:35;19.50;48.58
78902;DHT22;68290;44.716;37.756;2023-02-28T21:20:36;19.54;48.59
78902;DHT22;68290;44.716;37.756;2023-02-28T21:21:42;19.51;48.58
78902;DHT22;68290;44.716;37.756;2023-02-28T21:22:44;19.52;48.54
78902;DHT22;68290;44.716;37.756;2023-02-28T21:23:45;19.54;48.59
78902;DHT22;68290;44.716;37.756;2023-02-28T21:24:47;19.54;48.61
78902;DHT22;68290;44.716;37.756;2023-02-28T21:25:49;19.52;48.60
78902;DHT22;68290;44.716;37.756;2023-02-28T21:26:50;19.51;48.61
78902;DHT22;68290;44.716;37.756;2023-02-28T21:27:53;19.51;48.62
78902;DHT22;68290;44.716;37.756;2023-02-28T21:28:58;19.51;48.63
78902;DHT22;68290;44.716;37.756;2023-02-28T21:29:59;19.52;48.61
78902;DHT22;68290;44.716;37.756;2023-02-28T21:32:04;19.52;48.59
78902;DHT22;68290;44.716;37.756;2023-02-28T21:33:07;19.50;48.63
78902;DHT22;68290;44.716;37.756;2023-02-28T21:34:11;19.51;48.64
78902;DHT22;68290;44.716;37.756;2023-02-28T21:35:13;19.51;48.65
78902;DHT22;68290;44.716;37.756;2023-02-28T21:36:17;19.51;48.64
78902;DHT22;68290;44.716;37.756;2023-02-28T21:37:19;19.50;48.66
78902;DHT22;68290;44.716;37.756;2023-02-28T21:38:20;19.51;48.68
78902;DHT22;68290;44.716;37.756;2023-02-28T21:39:25;19.50;48.69
78902;DHT22;68290;44.716;37.756;2023-02-28T21:40:29;19.52;48.66
78902;DHT22;68290;44.716;37.756;2023-02-28T21:41:31;19.52;48.69
78902;DHT22;68290;44.716;37.756;2023-02-28T21:42:33;19.54;48.71
78902;DHT22;68290;44.716;37.756;2023-02-28T21:43:34;19.54;48.73
78902;DHT22;68290;44.716;37.756;2023-02-28T21:44:36;19.51;48.69
78902;DHT22;68290;44.716;37.756;2023-02-28T21:45:37;19.54;48.76
78902;DHT22;68290;44.716;37.756;2023-02-28T21:46:39;19.51;48.81
78902;DHT22;68290;44.716;37.756;2023-02-28T21:47:40;19.52;48.86
78902;DHT22;68290;44.716;37.756;2023-02-28T21:48:42;19.54;48.86
78902;DHT22;68290;44.716;37.756;2023-02-28T21:49:43;19.52;48.85
78902;DHT22;68290;44.716;37.756;2023-02-28T21:50:57;19.54;48.90
78902;DHT22;68290;44.716;37.756;2023-02-28T21:51:59;19.54;48.86
78902;DHT22;68290;44.716;37.756;2023-02-28T21:53:01;19.54;48.83
78902;DHT22;68290;44.716;37.756;2023-02-28T21:54:02;19.54;48.89
78902;DHT22;68290;44.716;37.756;2023-02-28T21:55:04;19.55;48.94
78902;DHT22;68290;44.716;37.756;2023-02-28T21:56:12;19.52;48.92
78902;DHT22;68290;44.716;37.756;2023-02-28T21:57:14;19.55;48.92
78902;DHT22;68290;44.716;37.756;2023-02-28T21:58:16;19.55;48.90
78902;DHT22;68290;44.716;37.756;2023-02-28T21:59:18;19.57;48.92
78902;DHT22;68290;44.716;37.756;2023-02-28T22:00:20;19.54;48.89
78902;DHT22;68290;44.716;37.756;2023-02-28T22:01:22;19.55;48.89
78902;DHT22;68290;44.716;37.756;2023-02-28T22:02:23;19.54;48.91
78902;DHT22;68290;44.716;37.756;2023-02-28T22:03:26;19.55;48.94
78902;DHT22;68290;44.716;37.756;2023-02-28T22:04:27;19.55;48.94
78902;DHT22;68290;44.716;37.756;2023-02-28T22:05:29;19.55;49.03
78902;DHT22;68290;44.716;37.756;2023-02-28T22:06:32;19.59;49.04
78902;DHT22;68290;44.716;37.756;2023-02-28T22:07:34;19.55;49.02
78902;DHT22;68290;44.716;37.756;2023-02-28T22:08:35;19.57;49.00
78902;DHT22;68290;44.716;37.756;2023-02-28T22:09:36;19.55;49.01
78902;DHT22;68290;44.716;37.756;2023-02-28T22:10:38;19.57;49.06
78902;DHT22;68290;44.716;37.756;2023-02-28T22:11:39;19.57;49.07
78902;DHT22;68290;44.716;37.756;2023-02-28T22:12:40;19.58;49.02
78902;DHT22;68290;44.716;37.756;2023-02-28T22:13:42;19.57;49.06
78902;DHT22;68290;44.716;37.756;2023-02-28T22:14:43;19.55;49.08
78902;DHT22;68290;44.716;37.756;2023-02-28T22:15:45;19.55;49.11
78902;DHT22;68290;44.716;37.756;2023-02-28T22:16:47;19.55;49.12
78902;DHT22;68290;44.716;37.756;2023-02-28T22:17:48;19.55;49.08
78902;DHT22;68290;44.716;37.756;2023-02-28T22:18:51;19.57;49.11
78902;DHT22;68290;44.716;37.756;2023-02-28T22:19:52;19.55;49.13
78902;DHT22;68290;44.716;37.756;2023-02-28T22:20:54;19.58;49.11
78902;DHT22;68290;44.716;37.756;2023-02-28T22:21:56;19.54;49.18
78902;DHT22;68290;44.716;37.756;2023-02-28T22:22:57;19.57;49.15
78902;DHT22;68290;44.716;37.756;2023-02-28T22:23:59;19.55;49.16
78902;DHT22;68290;44.716;37.756;2023-02-28T22:25:00;19.57;49.14
78902;DHT22;68290;44.716;37.756;2023-02-28T22:26:04;19.58;49.20
78902;DHT22;68290;44.716;37.756;2023-02-28T22:27:05;19.57;49.15
78902;DHT22;68290;44.716;37.756;2023-02-28T22:28:07;19.59;49.17
78902;DHT22;68290;44.716;37.756;2023-02-28T22:29:08;19.58;49.17
78902;DHT22;68290;44.716;37.756;2023-02-28T22:30:10;19.57;49.17
78902;DHT22;68290;44.716;37.756;2023-02-28T22:32:14;19.57;49.20
78902;DHT22;68290;44.716;37.756;2023-02-28T22:33:16;19.55;49.21
78902;DHT22;68290;44.716;37.756;2023-02-28T22:34:19;19.55;49.28
78902;DHT22;68290;44.716;37.756;2023-02-28T22:35:21;19.58;49.26
78902;DHT22;68290;44.716;37.756;2023-02-28T22:36:22;19.57;49.26
78902;DHT22;68290;44.716;37.756;2023-02-28T22:37:23;19.57;49.27
78902;DHT22;68290;44.716;37.756;2023-02-28T22:38:25;19.55;49.24
78902;DHT22;68290;44.716;37.756;2023-02-28T22:39:27;19.57;49.30
78902;DHT22;68290;44.716;37.756;2023-02-28T22:40:28;19.57;49.24
78902;DHT22;68290;44.716;37.756;2023-02-28T22:41:30;19.55;49.30
78902;DHT22;68290;44.716;37.756;2023-02-28T22:42:32;19.55;49.27
78902;DHT22;68290;44.716;37.756;2023-02-28T22:43:34;19.55;49.32
78902;DHT22;68290;44.716;37.756;2023-02-28T22:44:35;19.54;49.37
78902;DHT22;68290;44.716;37.756;2023-02-28T22:45:38;19.55;49.35
78902;DHT22;68290;44.716;37.756;2023-02-28T22:46:40;19.55;49.29
78902;DHT22;68290;44.716;37.756;2023-02-28T22:47:41;19.54;49.33
78902;DHT22;68290;44.716;37.756;2023-02-28T22:48:42;19.54;49.39
78902;DHT22;68290;44.716;37.756;2023-02-28T22:49:44;19.54;49.37
78902;DHT22;68290;44.716;37.756;2023-02-28T22:50:45;19.52;49.36
78902;DHT22;68290;44.716;37.756;2023-02-28T22:51:46;19.52;49.42
78902;DHT22;68290;44.716;37.756;2023-02-28T22:52:48;19.52;49.36
78902;DHT22;68290;44.716;37.756;2023-02-28T22:53:50;19.54;49.42